Latest Weather Observations for Dum In Mirrie

IDD60901

Issued at 10:41 pm CST Saturday 23 July 2016 (issued every 10 minutes, with the page automatically refreshed every 10 minutes)

About weather observations | Map of Darwin area stations | Latest observations for Darwin area | Other Formats
Station Details ID: 014277 Name: DUM IN MIRRIE AIRSTRIP Lat: -12.63 Lon: 130.37 Height: 3.5 m
Data from the previous 72 hours. | See also: Recent months at Dum In Mirrie
Date/Time
CST
Temp
°C
App
Temp
°C
Dew
Point
°C
Rel
Hum
%
Delta-T
°C
Wind Press
QNH
hPa
Press
MSL
hPa
Rain since
9am
mm
Dir  Spd
km/h
Gust
km/h
Spd
kts
Gust
kts
23/10:30pm - - - - - CALM 0 0 0 0 1010.9 1010.9 0.0
23/10:00pm - - - - - CALM 0 0 0 0 1010.7 1010.7 0.0
23/09:30pm - - - - - CALM 0 0 0 0 1010.5 1010.5 0.0
23/09:00pm - - - - - CALM 0 0 0 0 1010.4 1010.4 0.0
23/08:30pm - - - - - CALM 0 6 0 3 1010.1 1010.1 0.0
23/08:00pm - - - - - WNW 2 4 1 2 1009.9 1009.9 0.0
23/07:30pm - - - - - W 4 6 2 3 1009.6 1009.6 0.0
23/07:00pm - - - - - W 2 6 1 3 1009.5 1009.5 0.0
23/06:30pm - - - - - W 4 6 2 3 1009.3 1009.3 0.0
23/06:00pm - - - - - W 6 11 3 6 1009.1 1009.1 0.0
23/05:30pm - - - - - W 7 13 4 7 1009.1 1009.1 0.0
23/05:00pm - - - - - W 11 17 6 9 1009.1 1009.1 0.0
23/04:30pm - - - - - W 9 15 5 8 1009.2 1009.2 0.0
23/04:00pm - - - - - W 9 17 5 9 1009.3 1009.3 0.0
23/03:30pm - - - - - W 11 19 6 10 1009.4 1009.4 0.0
23/03:00pm - - - - - WNW 9 17 5 9 1009.6 1009.6 0.0
23/02:30pm - - - - - WNW 9 17 5 9 1010.0 1010.0 0.0
23/02:00pm 29.4 32.5 22.1 65 4.9 W 9 15 5 8 1010.6 1010.6 0.0
23/01:30pm 29.5 32.9 22.7 67 4.6 WNW 9 13 5 7 1011.1 1011.1 0.0
23/01:00pm 29.1 32.7 23.1 70 4.1 W 9 15 5 8 1011.5 1011.5 0.0
23/12:30pm 29.2 31.8 21.9 64 4.9 W 11 17 6 9 1011.9 1011.9 0.0
23/12:00pm 28.0 31.2 21.3 67 4.5 W 6 9 3 5 1012.5 1012.5 0.0
23/11:30am 27.8 31.6 21.6 69 4.1 WSW 4 6 2 3 1013.0 1013.0 0.0
23/11:00am 28.1 31.8 22.3 70 3.9 SW 6 9 3 5 1013.2 1013.2 0.0
23/10:30am 28.0 32.1 22.2 70 3.9 WSW 4 6 2 3 1013.3 1013.3 0.0
23/10:00am 27.9 32.5 22.4 72 3.7 WSW 2 6 1 3 1013.5 1013.5 0.0
23/09:30am 27.6 31.7 22.3 73 3.6 ENE 4 6 2 3 1013.4 1013.4 0.0
23/09:00am 26.1 30.7 23.2 84 2.0 E 4 6 2 3 1013.1 1013.1 0.0
23/08:30am 24.6 29.1 23.0 91 1.1 E 4 6 2 3 1012.9 1012.9 0.0
23/08:00am 22.9 27.2 22.6 98 0.2 E 4 6 2 3 1012.4 1012.4 0.0
23/07:30am 21.8 25.5 21.5 98 0.2 E 4 6 2 3 1012.2 1012.2 0.0
23/07:00am 20.5 23.6 20.2 98 0.2 ENE 4 6 2 3 1011.9 1011.9 0.0
23/06:30am 20.5 24.2 20.0 97 0.3 CALM 0 0 0 0 1011.6 1011.6 0.0
23/06:00am 21.1 25.2 20.8 98 0.2 CALM 0 0 0 0 1011.2 1011.2 0.0
23/05:30am 21.7 26.1 21.4 98 0.2 CALM 0 0 0 0 1010.9 1010.9 0.0
23/05:00am 21.6 26.0 21.3 98 0.2 CALM 0 0 0 0 1011.0 1011.0 0.0
23/04:30am 21.7 26.1 21.4 98 0.2 CALM 0 0 0 0 1010.8 1010.8 0.0
23/04:00am 21.5 25.3 21.0 97 0.3 S 2 2 1 1 1010.6 1010.6 0.0
23/03:30am 21.8 26.2 21.3 97 0.3 CALM 0 0 0 0 1010.8 1010.8 0.0
23/03:00am 21.9 26.3 21.4 97 0.3 CALM 0 0 0 0 1011.1 1011.1 0.0
23/02:30am 21.9 25.9 21.4 97 0.3 SSE 2 4 1 2 1011.4 1011.4 0.0
23/02:00am 22.0 26.4 21.3 96 0.5 CALM 0 4 0 2 1011.3 1011.3 0.0
23/01:30am 22.4 26.9 21.6 95 0.5 CALM 0 0 0 0 1011.5 1011.5 0.0
23/01:00am - - - - - CALM 0 0 0 0 1011.6 1011.6 0.0
23/12:30am 22.3 26.8 21.5 95 0.5 CALM 0 0 0 0 1011.6 1011.6 0.0
23/12:00am - - - - - CALM 0 0 0 0 1011.5 1011.5 0.0
 
Date/Time
CST
Temp
°C
App
Temp
°C
Dew
Point
°C
Rel
Hum
%
Delta-T
°C
Wind Press
QNH
hPa
Press
MSL
hPa
Rain since
9am
mm
Dir  Spd
km/h
Gust
km/h
Spd
kts
Gust
kts
22/11:30pm 22.1 26.4 21.1 94 0.7 CALM 0 0 0 0 1011.6 1011.6 0.0
22/11:00pm - - - - - CALM 0 0 0 0 1011.5 1011.5 0.0
22/10:30pm 23.3 27.8 22.3 94 0.7 SSE 2 4 1 2 1011.2 1011.2 0.0
22/10:00pm 22.9 27.2 21.9 94 0.7 S 2 6 1 3 1011.1 1011.1 0.0
22/09:30pm 22.0 25.8 20.1 89 1.2 CALM 0 0 0 0 1011.0 1011.0 0.0
22/09:00pm - - - - - CALM 0 0 0 0 1010.6 1010.6 0.0
22/08:30pm 22.4 25.9 19.6 84 1.8 CALM 0 0 0 0 1010.4 1010.4 0.0
22/08:00pm 22.5 25.1 19.3 82 2.0 NW 4 4 2 2 1010.1 1010.1 0.0
22/07:30pm 23.2 25.8 19.2 78 2.5 NNW 4 6 2 3 1009.9 1009.9 0.0
22/07:00pm 24.3 27.6 19.1 73 3.3 CALM 0 0 0 0 1009.7 1009.7 0.0
22/06:30pm 26.4 29.9 19.5 66 4.5 CALM 0 4 0 2 1009.6 1009.6 0.0
22/06:00pm 27.8 30.0 19.3 60 5.5 N 6 11 3 6 1009.3 1009.3 0.0
22/05:30pm 28.3 30.1 18.4 55 6.3 NNW 6 11 3 6 1009.1 1009.1 0.0
22/05:00pm 28.7 30.7 19.1 56 6.2 NNW 7 15 4 8 1009.0 1009.0 0.0
22/04:30pm 28.7 30.4 19.3 56 6.1 NNW 9 17 5 9 1009.1 1009.1 0.0
22/04:00pm 29.5 31.6 20.1 57 6.2 NNW 9 15 5 8 1009.2 1009.2 0.0
22/03:30pm 29.9 31.6 20.2 56 6.4 N 11 17 6 9 1009.4 1009.4 0.0
22/03:00pm 29.6 31.6 20.7 58 5.9 NNW 11 19 6 10 1009.7 1009.7 0.0
22/02:30pm - - - - - NNW 13 20 7 11 1010.1 1010.1 0.0
22/02:00pm 31.0 32.7 19.4 50 7.6 NNE 9 15 5 8 1010.4 1010.4 0.0
22/01:30pm - - - - - ESE 9 15 5 8 1010.9 1010.9 0.0
22/01:00pm 31.2 32.3 17.1 42 8.9 E 7 13 4 7 1011.4 1011.4 0.0
22/12:30pm - - - - - E 7 13 4 7 1011.9 1011.9 0.0
22/12:00pm - - - - - SW 6 9 3 5 1012.4 1012.4 0.0
22/11:30am - - - - - ESE 4 9 2 5 1012.7 1012.7 0.0
22/11:00am - - - - - S 4 7 2 4 1013.2 1013.2 0.0
22/10:30am - - - - - SSE 6 9 3 5 1013.4 1013.4 0.0
22/10:00am - - - - - SSE 6 9 3 5 1013.6 1013.6 0.0
22/09:30am - - - - - S 6 11 3 6 1013.6 1013.6 0.0
22/09:00am - - - - - SSE 4 9 2 5 1013.6 1013.6 0.0
22/08:30am - - - - - SSE 4 6 2 3 1013.4 1013.4 0.0
22/08:00am - - - - - SE 4 7 2 4 1013.1 1013.1 0.0
22/07:30am - - - - - ESE 4 6 2 3 1012.8 1012.8 0.0
22/07:00am - - - - - SE 4 6 2 3 1012.5 1012.5 0.0
22/06:30am - - - - - SE 6 15 3 8 1012.6 1012.6 0.0
22/06:00am - - - - - S 4 7 2 4 1011.9 1011.9 0.0
22/05:30am 19.2 22.0 18.9 98 0.2 S 2 6 1 3 1011.6 1011.6 0.0
22/05:00am 18.8 21.4 18.5 98 0.2 S 2 4 1 2 1011.4 1011.4 0.0
22/04:30am - - - - - S 2 4 1 2 1011.5 1011.5 0.0
22/04:00am 18.7 21.2 18.2 97 0.3 S 2 4 1 2 1011.7 1011.7 0.0
22/03:30am 18.9 21.9 18.4 97 0.3 CALM 0 0 0 0 1011.8 1011.8 0.0
22/03:00am - - - - - S 4 6 2 3 1012.0 1012.0 0.0
22/02:30am 19.2 21.8 18.5 96 0.4 SSE 2 4 1 2 1012.1 1012.1 0.0
22/02:00am 19.5 22.2 18.7 95 0.5 SSE 2 4 1 2 1012.4 1012.4 0.0
22/01:30am 20.2 23.3 19.4 95 0.5 S 2 4 1 2 1012.5 1012.5 0.0
22/01:00am 20.9 24.1 20.6 98 0.2 SSE 4 6 2 3 1012.6 1012.6 0.0
22/12:30am 20.9 24.5 20.6 98 0.2 SSE 2 4 1 2 1012.5 1012.5 0.0
22/12:00am 20.8 24.3 20.3 97 0.3 S 2 4 1 2 1012.2 1012.2 0.0
 
Date/Time
CST
Temp
°C
App
Temp
°C
Dew
Point
°C
Rel
Hum
%
Delta-T
°C
Wind Press
QNH
hPa
Press
MSL
hPa
Rain since
9am
mm
Dir  Spd
km/h
Gust
km/h
Spd
kts
Gust
kts
21/11:30pm 21.2 24.6 20.9 98 0.2 SSE 4 6 2 3 1012.5 1012.5 0.0
21/11:00pm 20.3 23.9 19.8 97 0.3 CALM 0 0 0 0 1012.4 1012.4 0.0
21/10:30pm 20.3 23.4 19.6 96 0.4 S 2 4 1 2 1012.3 1012.3 0.0
21/10:00pm 20.3 23.8 19.5 95 0.5 CALM 0 0 0 0 1012.4 1012.4 0.0
21/09:30pm 20.1 23.3 18.9 93 0.8 CALM 0 0 0 0 1012.3 1012.3 0.0
21/09:00pm 20.6 24.0 19.3 92 0.8 CALM 0 0 0 0 1012.1 1012.1 0.0
21/08:30pm 20.9 24.2 19.2 90 1.1 CALM 0 0 0 0 1011.8 1011.8 0.0
21/08:00pm 21.2 24.4 18.8 86 1.5 CALM 0 0 0 0 1011.6 1011.6 0.0
21/07:30pm 21.7 24.7 18.5 82 2.0 CALM 0 0 0 0 1011.4 1011.4 0.0
21/07:00pm 23.0 26.0 18.5 76 2.8 CALM 0 0 0 0 1011.1 1011.1 0.0
21/06:30pm 25.4 28.3 19.1 68 4.0 WNW 2 6 1 3 1010.8 1010.8 0.0
21/06:00pm 26.9 29.3 18.7 60 5.2 NNW 4 7 2 4 1010.5 1010.5 0.0
21/05:30pm 27.3 29.0 18.6 59 5.6 NNW 7 11 4 6 1010.3 1010.3 0.0
21/05:00pm 27.8 29.2 17.9 54 6.3 NW 7 11 4 6 1010.2 1010.2 0.0
21/04:30pm 28.0 29.9 19.0 58 5.8 NW 7 13 4 7 1010.3 1010.3 0.0
21/04:00pm 28.2 29.8 19.2 58 5.8 NW 9 13 5 7 1010.5 1010.5 0.0
21/03:30pm 28.0 28.8 18.1 55 6.3 NW 11 19 6 10 1010.5 1010.5 0.0
21/03:00pm 28.3 28.9 17.8 53 6.7 NNW 11 20 6 11 1010.7 1010.7 0.0
21/02:30pm - - - - - NNW 11 19 6 10 1011.4 1011.4 0.0
21/02:00pm - - - - - N 11 17 6 9 1012.0 1012.0 0.0
21/01:30pm 29.0 29.9 17.5 49 7.3 NNW 9 15 5 8 1012.6 1012.6 0.0
21/01:00pm 27.4 28.3 17.6 55 6.2 WSW 9 11 5 6 1012.8 1012.8 0.0
21/12:30pm - - - - - WSW 7 9 4 5 1013.2 1013.2 0.0
21/12:00pm - - - - - WNW 6 9 3 5 1013.7 1013.7 0.0
21/11:30am - - - - - ENE 4 9 2 5 1014.0 1014.0 0.0
21/11:00am - - - - - SE 4 7 2 4 1014.0 1014.0 0.0
21/10:30am - - - - - SSE 6 9 3 5 1014.2 1014.2 0.0
21/10:00am 25.7 29.1 20.9 75 3.2 SSE 4 9 2 5 1014.3 1014.3 0.0
21/09:30am 24.6 27.9 20.7 79 2.5 S 4 7 2 4 1014.3 1014.3 0.0
21/09:00am 23.0 26.2 20.5 86 1.6 SSE 4 7 2 4 1014.0 1014.0 0.0
21/08:30am 21.3 24.0 19.4 89 1.2 SE 4 6 2 3 1013.9 1013.9 0.0
21/08:00am 20.2 23.5 19.9 98 0.2 SE 2 4 1 2 1013.6 1013.6 0.0
21/07:30am 18.0 20.3 17.7 98 0.2 SE 2 4 1 2 1013.3 1013.3 0.0
21/07:00am - - - - - ESE 2 4 1 2 1013.1 1013.1 0.0
21/06:30am - - - - - CALM 0 0 0 0 1012.7 1012.7 0.0
21/06:00am - - - - - CALM 0 0 0 0 1012.4 1012.4 0.0
21/05:30am - - - - - CALM 0 0 0 0 1012.2 1012.2 0.0
21/05:00am - - - - - CALM 0 4 0 2 1012.2 1012.2 0.0
21/04:30am - - - - - SSE 2 4 1 2 1012.2 1012.2 0.0
21/04:00am - - - - - SSE 4 4 2 2 1012.2 1012.2 0.0
21/03:30am - - - - - SSE 2 4 1 2 1012.3 1012.3 0.0
21/03:00am - - - - - SSE 2 4 1 2 1012.5 1012.5 0.0
21/02:30am - - - - - SSE 4 6 2 3 1012.9 1012.9 0.0
21/02:00am - - - - - SSE 4 7 2 4 1012.9 1012.9 0.0
21/01:30am - - - - - SSE 4 6 2 3 1013.1 1013.1 0.0
21/01:00am - - - - - SSE 4 6 2 3 1013.3 1013.3 0.0
21/12:30am - - - - - SSE 4 4 2 2 1013.4 1013.4 0.0
21/12:00am 21.3 24.7 21.0 98 0.2 SSE 4 6 2 3 1013.6 1013.6 0.0
 
Date/Time
CST
Temp
°C
App
Temp
°C
Dew
Point
°C
Rel
Hum
%
Delta-T
°C
Wind Press
QNH
hPa
Press
MSL
hPa
Rain since
9am
mm
Dir  Spd
km/h
Gust
km/h
Spd
kts
Gust
kts
20/11:30pm 19.9 23.1 18.9 94 0.6 CALM 0 0 0 0 1013.6 1013.6 0.0
20/11:00pm 20.8 24.7 20.3 97 0.3 CALM 0 2 0 1 1013.3 1013.3 0.0

Latest Capital City Observations: Canberra | Sydney | Melbourne | Brisbane | Adelaide | Perth | Hobart | Darwin

Other Formats:

Comma delimited format used in spreadsheet applications
http://www.bom.gov.au/fwo/IDD60901/IDD60901.94116.axf

JavaScript Object Notation format (JSON) in row-major order
http://www.bom.gov.au/fwo/IDD60901/IDD60901.94116.json